createdAt,value
2018-04-15T00:00:51.334Z,1012.36
2018-04-15T00:01:51.620Z,1012.35
2018-04-15T00:02:51.376Z,1012.39
2018-04-15T00:03:51.386Z,1012.38
2018-04-15T00:04:51.397Z,1012.36
2018-04-15T00:05:51.488Z,1012.36
2018-04-15T00:06:51.465Z,1012.39
2018-04-15T00:07:51.856Z,1012.39
2018-04-15T00:08:51.576Z,1012.39
2018-04-15T00:09:51.555Z,1012.37
2018-04-15T00:10:51.600Z,1012.37
2018-04-15T00:11:51.632Z,1012.36
2018-04-15T00:12:51.641Z,1012.38
2018-04-15T00:13:52.257Z,1012.40
2018-04-15T00:14:51.795Z,1012.40
2018-04-15T00:15:51.731Z,1012.38
2018-04-15T00:16:51.763Z,1012.39
2018-04-15T00:17:51.835Z,1012.40
2018-04-15T00:18:51.846Z,1012.38
2018-04-15T00:19:52.187Z,1012.37
2018-04-15T00:20:51.903Z,1012.33
2018-04-15T00:21:51.928Z,1012.35
2018-04-15T00:22:52.106Z,1012.32
2018-04-15T00:23:52.023Z,1012.31
2018-04-15T00:24:53.301Z,1012.35
2018-04-15T00:25:52.461Z,1012.34
2018-04-15T00:26:52.091Z,1012.31
2018-04-15T00:27:52.189Z,1012.26
2018-04-15T00:28:52.151Z,1012.31
2018-04-15T00:29:52.280Z,1012.31
2018-04-15T00:30:52.264Z,1012.31
2018-04-15T00:31:52.649Z,1012.28
2018-04-15T00:32:52.341Z,1012.24
2018-04-15T00:33:52.946Z,1012.22
2018-04-15T00:34:52.375Z,1012.20
2018-04-15T00:35:52.388Z,1012.20
2018-04-15T00:36:52.493Z,1012.23
2018-04-15T00:37:52.807Z,1012.21
2018-04-15T00:38:52.470Z,1012.18
2018-04-15T00:39:52.567Z,1012.17
2018-04-15T00:40:52.622Z,1012.11
2018-04-15T00:41:52.563Z,1012.16
2018-04-15T00:42:52.851Z,1012.17
2018-04-15T00:43:52.999Z,1012.17
2018-04-15T00:44:53.326Z,1012.17
2018-04-15T00:45:52.737Z,1012.17
2018-04-15T00:46:52.768Z,1012.19
2018-04-15T00:47:52.780Z,1012.17
2018-04-15T00:48:52.877Z,1012.16
2018-04-15T00:49:53.174Z,1012.21
2018-04-15T00:50:52.849Z,1012.17
2018-04-15T00:51:52.880Z,1012.15
2018-04-15T00:52:53.185Z,1012.16
2018-04-15T00:53:52.973Z,1012.17
2018-04-15T00:54:53.794Z,1012.14
2018-04-15T00:55:53.059Z,1012.18
2018-04-15T00:56:53.715Z,1012.20
2018-04-15T00:57:53.151Z,1012.19
2018-04-15T00:58:53.120Z,1012.18
2018-04-15T00:59:54.431Z,1012.15
2018-04-15T01:00:53.687Z,1012.11
2018-04-15T01:01:53.256Z,1012.18
2018-04-15T01:02:53.606Z,1012.13
2018-04-15T01:03:53.318Z,1012.11
2018-04-15T01:04:53.319Z,1012.09
2018-04-15T01:05:53.447Z,1012.09
2018-04-15T01:06:53.558Z,1012.04
2018-04-15T01:07:53.394Z,1012.09
2018-04-15T01:08:54.724Z,1012.07
2018-04-15T01:09:53.813Z,1012.05
2018-04-15T01:10:54.759Z,1012.08
2018-04-15T01:11:53.558Z,1012.03
2018-04-15T01:12:53.769Z,1012.03
2018-04-15T01:13:53.675Z,1012.01
2018-04-15T01:14:53.641Z,1012.01
2018-04-15T01:15:53.698Z,1012.02
2018-04-15T01:16:54.046Z,1011.98
2018-04-15T01:17:53.766Z,1011.96
2018-04-15T01:18:53.760Z,1011.93
2018-04-15T01:19:54.992Z,1011.88
2018-04-15T01:20:53.923Z,1011.89
2018-04-15T01:21:53.848Z,1011.88
2018-04-15T01:22:53.976Z,1011.88
2018-04-15T01:23:54.545Z,1011.82
2018-04-15T01:24:53.947Z,1011.85
2018-04-15T01:25:54.035Z,1011.85
2018-04-15T01:26:54.010Z,1011.83
2018-04-15T01:27:54.045Z,1011.85
2018-04-15T01:28:55.308Z,1011.87
2018-04-15T01:29:54.097Z,1011.86
2018-04-15T01:30:55.746Z,1011.84
2018-04-15T01:31:54.240Z,1011.84
2018-04-15T01:32:54.212Z,1011.88
2018-04-15T01:33:54.233Z,1011.82
2018-04-15T01:34:54.242Z,1011.86
2018-04-15T01:35:54.769Z,1011.78
2018-04-15T01:36:54.325Z,1011.78
2018-04-15T01:37:55.917Z,1011.77
2018-04-15T01:38:54.425Z,1011.78
2018-04-15T01:39:54.419Z,1011.74
2018-04-15T01:40:54.455Z,1011.73
2018-04-15T01:41:54.536Z,1011.72
2018-04-15T01:42:54.639Z,1011.69
2018-04-15T01:43:54.888Z,1011.70
2018-04-15T01:44:54.694Z,1011.68
2018-04-15T01:45:54.667Z,1011.65
2018-04-15T01:46:54.941Z,1011.68
2018-04-15T01:47:54.681Z,1011.68
2018-04-15T01:48:54.689Z,1011.65
2018-04-15T01:49:55.093Z,1011.67
2018-04-15T01:50:54.763Z,1011.66
2018-04-15T01:51:56.070Z,1011.63
2018-04-15T01:52:54.888Z,1011.64
2018-04-15T01:53:54.889Z,1011.61
2018-04-15T01:54:54.888Z,1011.63
2018-04-15T01:55:55.259Z,1011.61
2018-04-15T01:56:55.111Z,1011.62
2018-04-15T01:57:55.036Z,1011.62
2018-04-15T01:58:55.023Z,1011.62
2018-04-15T01:59:55.045Z,1011.63
2018-04-15T02:00:55.267Z,1011.62
2018-04-15T02:01:55.455Z,1011.58
2018-04-15T02:02:56.429Z,1011.62
2018-04-15T02:03:55.190Z,1011.60
2018-04-15T02:04:55.289Z,1011.60
2018-04-15T02:05:55.306Z,1011.61
2018-04-15T02:06:55.277Z,1011.61
2018-04-15T02:07:55.690Z,1011.58
2018-04-15T02:08:55.341Z,1011.56
2018-04-15T02:09:55.366Z,1011.56
2018-04-15T02:10:55.405Z,1011.56
2018-04-15T02:11:55.430Z,1011.52
2018-04-15T02:12:55.546Z,1011.51
2018-04-15T02:13:56.687Z,1011.50
2018-04-15T02:14:56.219Z,1011.50
2018-04-15T02:15:55.567Z,1011.52
2018-04-15T02:16:55.711Z,1011.50
2018-04-15T02:17:55.656Z,1011.50
2018-04-15T02:18:56.916Z,1011.54
2018-04-15T02:19:55.771Z,1011.51
2018-04-15T02:20:56.928Z,1011.58
2018-04-15T02:21:56.115Z,1011.58
2018-04-15T02:22:55.832Z,1011.57
2018-04-15T02:23:55.887Z,1011.59
2018-04-15T02:24:56.304Z,1011.60
2018-04-15T02:25:55.915Z,1011.59
2018-04-15T02:26:56.155Z,1011.57
2018-04-15T02:27:55.997Z,1011.62
2018-04-15T02:28:56.329Z,1011.62
2018-04-15T02:29:56.275Z,1011.62
2018-04-15T02:30:56.178Z,1011.61
2018-04-15T02:31:56.089Z,1011.62
2018-04-15T02:32:56.204Z,1011.60
2018-04-15T02:33:56.137Z,1011.61
2018-04-15T02:34:56.266Z,1011.60
2018-04-15T02:35:56.562Z,1011.58
2018-04-15T02:36:56.233Z,1011.55
2018-04-15T02:37:56.312Z,1011.55
2018-04-15T02:38:56.784Z,1011.54
2018-04-15T02:39:56.347Z,1011.58
2018-04-15T02:40:56.357Z,1011.54
2018-04-15T02:41:56.385Z,1011.55
2018-04-15T02:42:56.791Z,1011.55
2018-04-15T02:43:56.448Z,1011.58
2018-04-15T02:44:56.551Z,1011.58
2018-04-15T02:45:56.499Z,1011.56
2018-04-15T02:46:56.532Z,1011.55
2018-04-15T02:47:56.574Z,1011.53
2018-04-15T02:48:56.616Z,1011.54
2018-04-15T02:49:56.984Z,1011.52
2018-04-15T02:50:56.682Z,1011.53
2018-04-15T02:51:56.773Z,1011.53
2018-04-15T02:52:56.739Z,1011.53
2018-04-15T02:53:56.822Z,1011.49
2018-04-15T02:54:56.846Z,1011.51
2018-04-15T02:55:56.873Z,1011.48
2018-04-15T02:56:57.210Z,1011.44
2018-04-15T02:57:56.952Z,1011.43
2018-04-15T02:58:57.150Z,1011.43
2018-04-15T02:59:56.961Z,1011.47
2018-04-15T03:00:56.995Z,1011.39
2018-04-15T03:01:57.045Z,1011.40
2018-04-15T03:02:57.124Z,1011.37
2018-04-15T03:03:57.433Z,1011.42
2018-04-15T03:04:57.125Z,1011.37
2018-04-15T03:05:57.183Z,1011.34
2018-04-15T03:06:57.242Z,1011.35
2018-04-15T03:07:57.242Z,1011.35
2018-04-15T03:08:57.285Z,1011.35
2018-04-15T03:09:57.457Z,1011.31
2018-04-15T03:10:57.662Z,1011.34
2018-04-15T03:11:57.343Z,1011.29
2018-04-15T03:12:57.414Z,1011.25
2018-04-15T03:13:57.406Z,1011.24
2018-04-15T03:14:57.437Z,1011.24
2018-04-15T03:15:57.513Z,1011.20
2018-04-15T03:16:57.580Z,1011.21
2018-04-15T03:17:57.969Z,1011.23
2018-04-15T03:18:57.659Z,1011.21
2018-04-15T03:19:57.624Z,1011.20
2018-04-15T03:20:57.628Z,1011.19
2018-04-15T03:21:57.663Z,1011.20
2018-04-15T03:22:57.723Z,1011.22
2018-04-15T03:23:58.062Z,1011.22
2018-04-15T03:24:58.002Z,1011.23
2018-04-15T03:25:57.782Z,1011.23
2018-04-15T03:26:57.803Z,1011.21
2018-04-15T03:27:57.859Z,1011.22
2018-04-15T03:28:59.113Z,1011.21
2018-04-15T03:29:58.336Z,1011.19
2018-04-15T03:30:57.949Z,1011.30
2018-04-15T03:31:58.018Z,1011.25
2018-04-15T03:32:58.005Z,1011.23
2018-04-15T03:33:58.025Z,1011.23
2018-04-15T03:34:58.073Z,1011.22
2018-04-15T03:35:58.089Z,1011.18
2018-04-15T03:36:58.424Z,1011.18
2018-04-15T03:37:58.459Z,1011.17
2018-04-15T03:38:58.247Z,1011.20
2018-04-15T03:39:58.277Z,1011.19
2018-04-15T03:40:58.399Z,1011.14
2018-04-15T03:41:58.363Z,1011.15
2018-04-15T03:42:58.664Z,1011.14
2018-04-15T03:43:58.468Z,1011.14
2018-04-15T03:44:58.427Z,1011.13
2018-04-15T03:45:58.498Z,1011.15
2018-04-15T03:46:58.438Z,1011.11
2018-04-15T03:47:58.466Z,1011.12
2018-04-15T03:48:58.858Z,1011.14
2018-04-15T03:49:58.582Z,1011.14
2018-04-15T03:50:58.607Z,1011.13
2018-04-15T03:51:58.637Z,1011.07
2018-04-15T03:52:58.641Z,1011.05
2018-04-15T03:53:58.693Z,1011.03
2018-04-15T03:54:59.065Z,1011.02
2018-04-15T03:55:58.726Z,1011.04
2018-04-15T03:56:58.761Z,1011.02
2018-04-15T03:57:58.842Z,1011.02
2018-04-15T03:58:58.815Z,1010.99
2018-04-15T03:59:58.932Z,1010.98
2018-04-15T04:00:59.244Z,1010.98
2018-04-15T04:01:58.924Z,1010.99
2018-04-15T04:02:58.947Z,1011.01
2018-04-15T04:03:58.981Z,1011.04
2018-04-15T04:04:59.095Z,1011.11
2018-04-15T04:05:59.051Z,1011.10
2018-04-15T04:06:59.426Z,1011.08
2018-04-15T04:07:59.118Z,1011.12
2018-04-15T04:08:59.134Z,1011.11
2018-04-15T04:09:59.222Z,1011.10
2018-04-15T04:10:59.349Z,1011.11
2018-04-15T04:11:59.227Z,1011.13
2018-04-15T04:12:59.817Z,1011.13
2018-04-15T04:13:59.312Z,1011.12
2018-04-15T04:14:59.443Z,1011.13
2018-04-15T04:15:59.364Z,1011.10
2018-04-15T04:16:59.424Z,1011.06
2018-04-15T04:17:59.492Z,1011.10
2018-04-15T04:18:59.825Z,1011.10
2018-04-15T04:19:59.488Z,1011.09
2018-04-15T04:20:59.567Z,1011.08
2018-04-15T04:21:59.607Z,1011.11
2018-04-15T04:22:59.614Z,1011.15
2018-04-15T04:23:59.618Z,1011.16
2018-04-15T04:25:00.051Z,1011.14
2018-04-15T04:25:59.743Z,1011.07
2018-04-15T04:26:59.702Z,1011.08
2018-04-15T04:27:59.750Z,1011.09
2018-04-15T04:28:59.821Z,1011.13
2018-04-15T04:29:59.834Z,1011.12
2018-04-15T04:31:00.214Z,1011.14
2018-04-15T04:31:59.933Z,1011.16
2018-04-15T04:32:59.901Z,1011.13
2018-04-15T04:34:00.011Z,1011.13
2018-04-15T04:35:00.005Z,1011.09
2018-04-15T04:36:00.040Z,1011.07
2018-04-15T04:37:00.033Z,1011.10
2018-04-15T04:38:00.927Z,1011.07
2018-04-15T04:39:00.096Z,1011.08
2018-04-15T04:40:00.141Z,1011.04
2018-04-15T04:41:00.155Z,1011.01
2018-04-15T04:42:00.248Z,1011.02
2018-04-15T04:43:00.940Z,1011.04
2018-04-15T04:44:00.566Z,1011.02
2018-04-15T04:45:00.299Z,1010.98
2018-04-15T04:46:00.322Z,1010.98
2018-04-15T04:47:00.426Z,1011.00
2018-04-15T04:48:00.386Z,1010.99
2018-04-15T04:49:00.481Z,1011.02
2018-04-15T04:50:00.604Z,1010.99
2018-04-15T04:51:00.816Z,1010.98
2018-04-15T04:52:00.508Z,1011.01
2018-04-15T04:53:00.621Z,1011.00
2018-04-15T04:54:00.564Z,1011.00
2018-04-15T04:55:00.664Z,1011.04
2018-04-15T04:56:01.095Z,1011.02
2018-04-15T04:57:00.640Z,1011.00
2018-04-15T04:58:00.992Z,1010.98
2018-04-15T04:59:00.764Z,1010.98
2018-04-15T05:00:00.796Z,1010.96
2018-04-15T05:01:00.916Z,1010.97
2018-04-15T05:02:00.819Z,1010.99
2018-04-15T05:03:00.832Z,1010.98
2018-04-15T05:04:01.187Z,1010.97
2018-04-15T05:05:00.933Z,1010.96
2018-04-15T05:06:00.981Z,1010.96
2018-04-15T05:07:01.037Z,1010.96
2018-04-15T05:08:01.049Z,1010.97
2018-04-15T05:09:01.046Z,1010.94
2018-04-15T05:10:01.123Z,1010.91
2018-04-15T05:11:01.383Z,1010.91
2018-04-15T05:12:01.174Z,1010.88
2018-04-15T05:13:01.179Z,1010.86
2018-04-15T05:14:01.193Z,1010.88
2018-04-15T05:15:01.212Z,1010.85
2018-04-15T05:16:02.092Z,1010.81
2018-04-15T05:17:01.669Z,1010.82
2018-04-15T05:18:01.333Z,1010.83
2018-04-15T05:19:01.345Z,1010.81
2018-04-15T05:20:01.391Z,1010.81
2018-04-15T05:21:01.532Z,1010.79
2018-04-15T05:22:01.539Z,1010.79
2018-04-15T05:23:01.847Z,1010.78
2018-04-15T05:24:01.564Z,1010.74
2018-04-15T05:25:01.599Z,1010.75
2018-04-15T05:26:02.154Z,1010.76
2018-04-15T05:27:01.637Z,1010.76
2018-04-15T05:28:01.710Z,1010.77
2018-04-15T05:29:02.530Z,1010.74
2018-04-15T05:30:01.694Z,1010.75
2018-04-15T05:31:01.856Z,1010.69
2018-04-15T05:32:01.748Z,1010.72
2018-04-15T05:33:01.853Z,1010.71
2018-04-15T05:34:01.816Z,1010.68
2018-04-15T05:35:02.232Z,1010.69
2018-04-15T05:36:01.865Z,1010.68
2018-04-15T05:37:01.949Z,1010.73
2018-04-15T05:38:01.929Z,1010.70
2018-04-15T05:39:02.016Z,1010.72
2018-04-15T05:40:02.013Z,1010.69
2018-04-15T05:41:02.402Z,1010.67
2018-04-15T05:42:02.076Z,1010.65
2018-04-15T05:43:02.104Z,1010.63
2018-04-15T05:44:02.168Z,1010.62
2018-04-15T05:45:02.169Z,1010.60
2018-04-15T05:46:02.227Z,1010.58
2018-04-15T05:47:02.510Z,1010.62
2018-04-15T05:48:02.289Z,1010.54
2018-04-15T05:49:02.274Z,1010.55
2018-04-15T05:50:02.318Z,1010.52
2018-04-15T05:51:02.361Z,1010.48
2018-04-15T05:52:02.452Z,1010.48
2018-04-15T05:53:02.434Z,1010.45
2018-04-15T05:54:02.985Z,1010.44
2018-04-15T05:55:02.456Z,1010.46
2018-04-15T05:56:02.523Z,1010.47
2018-04-15T05:57:02.668Z,1010.46
2018-04-15T05:58:02.568Z,1010.47
2018-04-15T05:59:02.603Z,1010.44
2018-04-15T06:00:02.980Z,1010.44
2018-04-15T06:01:02.664Z,1010.43
2018-04-15T06:02:02.743Z,1010.43
2018-04-15T06:03:02.925Z,1010.42
2018-04-15T06:04:02.763Z,1010.42
2018-04-15T06:05:02.804Z,1010.40
2018-04-15T06:06:03.146Z,1010.41
2018-04-15T06:07:02.854Z,1010.38
2018-04-15T06:08:02.875Z,1010.39
2018-04-15T06:09:02.933Z,1010.39
2018-04-15T06:10:02.959Z,1010.34
2018-04-15T06:11:03.145Z,1010.36
2018-04-15T06:12:03.381Z,1010.32
2018-04-15T06:13:03.033Z,1010.30
2018-04-15T06:14:03.121Z,1010.30
2018-04-15T06:15:03.100Z,1010.28
2018-04-15T06:16:03.176Z,1010.24
2018-04-15T06:17:03.239Z,1010.24
2018-04-15T06:18:03.557Z,1010.20
2018-04-15T06:19:03.415Z,1010.19
2018-04-15T06:20:03.280Z,1010.18
2018-04-15T06:21:03.395Z,1010.19
2018-04-15T06:22:03.343Z,1010.19
2018-04-15T06:23:03.336Z,1010.18
2018-04-15T06:24:03.745Z,1010.19
2018-04-15T06:25:03.442Z,1010.15
2018-04-15T06:26:03.470Z,1010.12
2018-04-15T06:27:03.485Z,1010.05
2018-04-15T06:28:03.525Z,1010.07
2018-04-15T06:29:03.546Z,1010.00
2018-04-15T06:30:03.946Z,1009.98
2018-04-15T06:31:03.647Z,1009.99
2018-04-15T06:32:03.637Z,1009.95
2018-04-15T06:33:03.749Z,1009.93
2018-04-15T06:34:03.681Z,1009.92
2018-04-15T06:35:03.840Z,1009.92
2018-04-15T06:36:04.096Z,1009.96
2018-04-15T06:37:03.832Z,1009.91
2018-04-15T06:38:03.903Z,1009.94
2018-04-15T06:39:03.892Z,1009.93
2018-04-15T06:40:03.893Z,1009.92
2018-04-15T06:41:03.975Z,1009.92
2018-04-15T06:42:03.951Z,1009.89
2018-04-15T06:43:04.355Z,1009.87
2018-04-15T06:44:04.031Z,1009.84
2018-04-15T06:45:04.046Z,1009.81
2018-04-15T06:46:04.081Z,1009.79
2018-04-15T06:47:04.180Z,1009.76
2018-04-15T06:48:04.183Z,1009.73
2018-04-15T06:49:04.569Z,1009.71
2018-04-15T06:50:04.197Z,1009.73
2018-04-15T06:51:04.285Z,1009.76
2018-04-15T06:52:04.365Z,1009.74
2018-04-15T06:53:04.393Z,1009.72
2018-04-15T06:54:04.317Z,1009.72
2018-04-15T06:55:04.660Z,1009.71
2018-04-15T06:56:04.378Z,1009.71
2018-04-15T06:57:04.408Z,1009.73
2018-04-15T06:58:04.440Z,1009.74
2018-04-15T06:59:04.721Z,1009.75
2018-04-15T07:00:04.504Z,1009.74
2018-04-15T07:01:04.892Z,1009.80
2018-04-15T07:02:04.590Z,1009.77
2018-04-15T07:03:04.681Z,1009.84
2018-04-15T07:04:04.645Z,1009.80
2018-04-15T07:05:04.678Z,1009.81
2018-04-15T07:06:04.893Z,1009.82
2018-04-15T07:07:04.759Z,1009.83
2018-04-15T07:08:05.109Z,1009.80
2018-04-15T07:09:04.785Z,1009.81
2018-04-15T07:10:04.834Z,1009.77
2018-04-15T07:11:04.863Z,1009.80
2018-04-15T07:12:04.945Z,1009.80
2018-04-15T07:13:04.957Z,1009.77
2018-04-15T07:14:04.951Z,1009.74
2018-04-15T07:15:05.395Z,1009.76
2018-04-15T07:16:05.097Z,1009.71
2018-04-15T07:17:05.259Z,1009.69
2018-04-15T07:18:05.092Z,1009.69
2018-04-15T07:19:05.406Z,1009.66
2018-04-15T07:20:05.197Z,1009.66
2018-04-15T07:21:05.526Z,1009.66
2018-04-15T07:22:05.239Z,1009.67
2018-04-15T07:23:05.242Z,1009.66
2018-04-15T07:24:05.283Z,1009.70
2018-04-15T07:25:05.302Z,1009.73
2018-04-15T07:26:05.377Z,1009.73
2018-04-15T07:27:05.714Z,1009.79
2018-04-15T07:28:05.442Z,1009.77
2018-04-15T07:29:05.423Z,1009.81
2018-04-15T07:30:05.468Z,1009.79
2018-04-15T07:31:05.601Z,1009.82
2018-04-15T07:32:05.590Z,1009.82
2018-04-15T07:33:05.900Z,1009.83
2018-04-15T07:34:05.588Z,1009.85
2018-04-15T07:35:05.613Z,1009.87
2018-04-15T07:36:05.712Z,1009.81
2018-04-15T07:37:05.732Z,1009.79
2018-04-15T07:38:05.728Z,1009.77
2018-04-15T07:39:06.123Z,1009.76
2018-04-15T07:40:05.812Z,1009.74
2018-04-15T07:41:05.862Z,1009.70
2018-04-15T07:42:05.847Z,1009.71
2018-04-15T07:43:05.899Z,1009.67
2018-04-15T07:44:05.963Z,1009.67
2018-04-15T07:45:05.953Z,1009.62
2018-04-15T07:46:06.371Z,1009.66
2018-04-15T07:47:06.058Z,1009.63
2018-04-15T07:48:06.081Z,1009.62
2018-04-15T07:49:06.076Z,1009.63
2018-04-15T07:50:06.153Z,1009.65
2018-04-15T07:51:06.122Z,1009.65
2018-04-15T07:52:06.512Z,1009.66
2018-04-15T07:53:06.220Z,1009.66
2018-04-15T07:54:06.273Z,1009.62
2018-04-15T07:55:06.337Z,1009.60
2018-04-15T07:56:06.285Z,1009.55
2018-04-15T07:57:06.359Z,1009.52
2018-04-15T07:58:07.924Z,1009.51
2018-04-15T07:59:06.382Z,1009.52
2018-04-15T08:00:06.425Z,1009.45
2018-04-15T08:01:06.532Z,1009.49
2018-04-15T08:02:06.488Z,1009.50
2018-04-15T08:03:06.539Z,1009.51
2018-04-15T08:04:06.886Z,1009.51
2018-04-15T08:05:06.615Z,1009.54
2018-04-15T08:06:06.620Z,1009.51
2018-04-15T08:07:06.649Z,1009.51
2018-04-15T08:08:06.701Z,1009.48
2018-04-15T08:09:06.753Z,1009.47
2018-04-15T08:10:07.260Z,1009.45
2018-04-15T08:11:06.762Z,1009.44
2018-04-15T08:12:06.998Z,1009.40
2018-04-15T08:13:06.866Z,1009.41
2018-04-15T08:14:06.909Z,1009.39
2018-04-15T08:15:06.885Z,1009.40
2018-04-15T08:16:07.285Z,1009.41
2018-04-15T08:17:07.069Z,1009.41
2018-04-15T08:18:07.002Z,1009.39
2018-04-15T08:19:07.035Z,1009.44
2018-04-15T08:20:07.116Z,1009.41
2018-04-15T08:21:07.120Z,1009.43
2018-04-15T08:22:07.509Z,1009.42
2018-04-15T08:23:07.190Z,1009.41
2018-04-15T08:24:07.247Z,1009.41
2018-04-15T08:25:07.396Z,1009.40
2018-04-15T08:26:07.398Z,1009.38
2018-04-15T08:27:07.331Z,1009.39
2018-04-15T08:28:07.691Z,1009.37
2018-04-15T08:29:07.451Z,1009.37
2018-04-15T08:30:07.446Z,1009.32
2018-04-15T08:31:07.419Z,1009.33
2018-04-15T08:32:07.493Z,1009.33
2018-04-15T08:33:07.486Z,1009.29
2018-04-15T08:34:07.892Z,1009.33
2018-04-15T08:35:07.537Z,1009.34
2018-04-15T08:36:08.820Z,1009.35
2018-04-15T08:37:07.761Z,1009.34
2018-04-15T08:38:07.623Z,1009.35
2018-04-15T08:39:07.689Z,1009.34
2018-04-15T08:40:08.093Z,1009.35
2018-04-15T08:41:07.755Z,1009.35
2018-04-15T08:42:07.789Z,1009.35
2018-04-15T08:43:07.830Z,1009.35
2018-04-15T08:44:07.864Z,1009.32
2018-04-15T08:45:07.871Z,1009.36
2018-04-15T08:46:08.248Z,1009.33
2018-04-15T08:47:08.119Z,1009.32
2018-04-15T08:48:07.978Z,1009.31
2018-04-15T08:49:08.036Z,1009.29
2018-04-15T08:50:08.031Z,1009.22
2018-04-15T08:51:08.117Z,1009.30
2018-04-15T08:52:08.442Z,1009.24
2018-04-15T08:53:08.114Z,1009.20
2018-04-15T08:54:08.161Z,1009.22
2018-04-15T08:55:08.264Z,1009.14
2018-04-15T08:56:08.224Z,1009.13
2018-04-15T08:57:08.309Z,1009.07
2018-04-15T08:58:08.632Z,1009.04
2018-04-15T08:59:08.314Z,1009.07
2018-04-15T09:00:08.333Z,1009.02
2018-04-15T09:01:08.420Z,1009.03
2018-04-15T09:02:08.391Z,1009.04
2018-04-15T09:03:08.434Z,1009.02
2018-04-15T09:04:08.830Z,1009.02
2018-04-15T09:05:08.691Z,1009.00
2018-04-15T09:06:08.680Z,1008.96
2018-04-15T09:07:08.624Z,1008.96
2018-04-15T09:08:08.634Z,1008.98
2018-04-15T09:09:08.784Z,1008.94
2018-04-15T09:10:09.138Z,1008.98
2018-04-15T09:11:08.834Z,1009.01
2018-04-15T09:12:08.881Z,1008.99
2018-04-15T09:13:08.793Z,1009.03
2018-04-15T09:14:08.818Z,1009.00
2018-04-15T09:15:08.919Z,1009.07
2018-04-15T09:16:09.243Z,1009.05
2018-04-15T09:17:08.973Z,1009.08
2018-04-15T09:18:08.985Z,1009.05
2018-04-15T09:19:09.019Z,1009.08
2018-04-15T09:20:09.027Z,1009.04
2018-04-15T09:21:10.464Z,1008.97
2018-04-15T09:22:09.415Z,1009.05
2018-04-15T09:23:09.076Z,1009.04
2018-04-15T09:24:09.131Z,1009.00
2018-04-15T09:25:09.211Z,1009.02
2018-04-15T09:26:09.227Z,1008.97
2018-04-15T09:27:09.505Z,1008.95
2018-04-15T09:28:09.617Z,1008.89
2018-04-15T09:29:09.312Z,1008.91
2018-04-15T09:30:09.340Z,1008.85
2018-04-15T09:31:09.354Z,1008.84
2018-04-15T09:32:09.460Z,1008.88
2018-04-15T09:33:09.476Z,1008.86
2018-04-15T09:34:09.817Z,1008.86
2018-04-15T09:35:09.700Z,1008.84
2018-04-15T09:36:09.533Z,1008.79
2018-04-15T09:37:09.587Z,1008.83
2018-04-15T09:38:09.678Z,1008.84
2018-04-15T09:39:09.634Z,1008.79
2018-04-15T09:40:10.032Z,1008.79
2018-04-15T09:41:09.740Z,1008.79
2018-04-15T09:42:09.706Z,1008.81
2018-04-15T09:43:09.773Z,1008.75
2018-04-15T09:44:10.004Z,1008.78
2018-04-15T09:45:09.822Z,1008.76
2018-04-15T09:46:10.258Z,1008.76
2018-04-15T09:47:09.873Z,1008.76
2018-04-15T09:48:11.199Z,1008.72
2018-04-15T09:49:10.238Z,1008.74
2018-04-15T09:50:10.010Z,1008.72
2018-04-15T09:51:10.059Z,1008.73
2018-04-15T09:52:10.404Z,1008.71
2018-04-15T09:53:10.311Z,1008.73
2018-04-15T09:54:10.135Z,1008.71
2018-04-15T09:55:10.141Z,1008.67
2018-04-15T09:56:10.239Z,1008.72
2018-04-15T09:57:10.247Z,1008.71
2018-04-15T09:58:10.612Z,1008.71
2018-04-15T09:59:10.283Z,1008.71
2018-04-15T10:00:10.307Z,1008.70
2018-04-15T10:01:10.333Z,1008.72
2018-04-15T10:02:10.375Z,1008.71
2018-04-15T10:03:10.469Z,1008.70
2018-04-15T10:04:10.814Z,1008.73
2018-04-15T10:05:10.472Z,1008.73
2018-04-15T10:06:10.537Z,1008.76
2018-04-15T10:07:10.535Z,1008.75
2018-04-15T10:08:10.575Z,1008.74
2018-04-15T10:09:10.597Z,1008.73
2018-04-15T10:10:11.226Z,1008.68
2018-04-15T10:11:10.724Z,1008.71
2018-04-15T10:12:10.746Z,1008.69
2018-04-15T10:13:10.800Z,1008.66
2018-04-15T10:14:11.983Z,1008.64
2018-04-15T10:15:10.839Z,1008.63
2018-04-15T10:16:11.317Z,1008.61
2018-04-15T10:17:10.898Z,1008.63
2018-04-15T10:18:12.137Z,1008.60
2018-04-15T10:19:10.972Z,1008.61
2018-04-15T10:20:11.031Z,1008.60
2018-04-15T10:21:10.995Z,1008.64
2018-04-15T10:22:11.406Z,1008.63
2018-04-15T10:23:11.058Z,1008.60
2018-04-15T10:24:11.271Z,1008.63
2018-04-15T10:25:11.138Z,1008.62
2018-04-15T10:26:11.179Z,1008.65
2018-04-15T10:27:11.248Z,1008.60
2018-04-15T10:28:11.577Z,1008.61
2018-04-15T10:29:11.287Z,1008.62
2018-04-15T10:30:11.360Z,1008.61
2018-04-15T10:31:11.375Z,1008.60
2018-04-15T10:32:11.706Z,1008.57
2018-04-15T10:33:11.407Z,1008.56
2018-04-15T10:34:13.008Z,1008.57
2018-04-15T10:35:11.495Z,1008.50
2018-04-15T10:36:11.682Z,1008.52
2018-04-15T10:37:11.728Z,1008.50
2018-04-15T10:38:11.601Z,1008.50
2018-04-15T10:39:11.592Z,1008.44
2018-04-15T10:40:12.053Z,1008.51
2018-04-15T10:41:11.655Z,1008.45
2018-04-15T10:42:11.749Z,1008.50
2018-04-15T10:43:11.795Z,1008.47
2018-04-15T10:44:12.298Z,1008.44
2018-04-15T10:45:11.803Z,1008.43
2018-04-15T10:46:12.123Z,1008.42
2018-04-15T10:47:11.878Z,1008.44
2018-04-15T10:48:11.903Z,1008.39
2018-04-15T10:49:11.941Z,1008.40
2018-04-15T10:50:12.139Z,1008.34
2018-04-15T10:51:12.001Z,1008.33
2018-04-15T10:52:12.737Z,1008.31
2018-04-15T10:53:12.262Z,1008.30
2018-04-15T10:54:12.445Z,1008.30
2018-04-15T10:55:12.161Z,1008.26
2018-04-15T10:56:12.196Z,1008.27
2018-04-15T10:57:12.269Z,1008.28
2018-04-15T10:58:12.626Z,1008.26
2018-04-15T10:59:12.388Z,1008.30
2018-04-15T11:00:12.329Z,1008.28
2018-04-15T11:01:12.568Z,1008.29
2018-04-15T11:02:12.376Z,1008.25
2018-04-15T11:03:12.408Z,1008.29
2018-04-15T11:04:12.804Z,1008.28
2018-04-15T11:05:12.727Z,1008.25
2018-04-15T11:06:12.572Z,1008.30
2018-04-15T11:07:12.596Z,1008.28
2018-04-15T11:08:12.624Z,1008.24
2018-04-15T11:09:12.626Z,1008.20
2018-04-15T11:10:13.015Z,1008.22
2018-04-15T11:11:12.673Z,1008.26
2018-04-15T11:12:12.714Z,1008.23
2018-04-15T11:13:12.828Z,1008.24
2018-04-15T11:14:12.905Z,1008.24
2018-04-15T11:15:12.870Z,1008.21
2018-04-15T11:16:13.207Z,1008.25
2018-04-15T11:17:12.943Z,1008.25
2018-04-15T11:18:13.829Z,1008.23
2018-04-15T11:19:12.976Z,1008.28
2018-04-15T11:20:12.973Z,1008.22
2018-04-15T11:21:13.035Z,1008.25
2018-04-15T11:22:13.356Z,1008.22
2018-04-15T11:23:13.127Z,1008.24
2018-04-15T11:24:13.135Z,1008.20
2018-04-15T11:25:13.362Z,1008.20
2018-04-15T11:26:13.287Z,1008.14
2018-04-15T11:27:13.283Z,1008.13
2018-04-15T11:28:13.604Z,1008.14
2018-04-15T11:29:13.331Z,1008.10
2018-04-15T11:30:13.323Z,1008.06
2018-04-15T11:31:13.375Z,1008.11
2018-04-15T11:32:13.478Z,1008.02
2018-04-15T11:33:13.477Z,1008.06
2018-04-15T11:34:13.836Z,1007.99
2018-04-15T11:35:13.503Z,1008.02
2018-04-15T11:36:13.529Z,1008.01
2018-04-15T11:37:13.836Z,1007.99
2018-04-15T11:38:13.586Z,1008.00
2018-04-15T11:39:13.656Z,1007.99
2018-04-15T11:40:14.044Z,1007.95
2018-04-15T11:41:13.784Z,1007.98
2018-04-15T11:42:13.780Z,1007.95
2018-04-15T11:43:15.076Z,1007.93
2018-04-15T11:44:13.808Z,1007.92
2018-04-15T11:45:14.046Z,1007.89
2018-04-15T11:46:14.222Z,1007.91
2018-04-15T11:47:13.993Z,1007.93
2018-04-15T11:48:15.147Z,1007.92
2018-04-15T11:49:13.991Z,1007.87
2018-04-15T11:50:15.377Z,1007.85
2018-04-15T11:51:14.088Z,1007.82
2018-04-15T11:52:14.501Z,1007.83
2018-04-15T11:53:14.100Z,1007.81
2018-04-15T11:54:14.129Z,1007.86
2018-04-15T11:55:14.232Z,1007.87
2018-04-15T11:56:14.238Z,1007.85
2018-04-15T11:57:14.505Z,1007.80
2018-04-15T11:58:14.605Z,1007.81
2018-04-15T11:59:14.504Z,1007.81
2018-04-15T12:00:14.349Z,1007.79
2018-04-15T12:01:14.404Z,1007.79
2018-04-15T12:02:14.531Z,1007.78
2018-04-15T12:03:14.507Z,1007.77
2018-04-15T12:04:14.849Z,1007.76
2018-04-15T12:05:14.539Z,1007.78
2018-04-15T12:06:14.562Z,1007.76